sensor_id;sensor_type;location;lat;lon;timestamp;temperature;humidity
9542;DHT22;4809;48.224;8.572;2023-05-31T00:00:03;13.40;61.60
9542;DHT22;4809;48.224;8.572;2023-05-31T00:02:29;13.40;60.80
9542;DHT22;4809;48.224;8.572;2023-05-31T00:04:55;13.40;61.20
9542;DHT22;4809;48.224;8.572;2023-05-31T00:07:20;13.40;61.60
9542;DHT22;4809;48.224;8.572;2023-05-31T00:09:46;13.30;61.80
9542;DHT22;4809;48.224;8.572;2023-05-31T00:12:12;13.30;61.50
9542;DHT22;4809;48.224;8.572;2023-05-31T00:14:37;13.20;62.60
9542;DHT22;4809;48.224;8.572;2023-05-31T00:17:03;13.20;61.90
9542;DHT22;4809;48.224;8.572;2023-05-31T00:19:29;13.10;62.10
9542;DHT22;4809;48.224;8.572;2023-05-31T00:21:55;13.10;61.90
9542;DHT22;4809;48.224;8.572;2023-05-31T00:24:20;13.20;62.30
9542;DHT22;4809;48.224;8.572;2023-05-31T00:26:46;13.10;62.20
9542;DHT22;4809;48.224;8.572;2023-05-31T00:29:12;13.10;63.00
9542;DHT22;4809;48.224;8.572;2023-05-31T00:31:37;13.10;63.40
9542;DHT22;4809;48.224;8.572;2023-05-31T00:34:03;13.10;62.40
9542;DHT22;4809;48.224;8.572;2023-05-31T00:36:29;13.10;63.20
9542;DHT22;4809;48.224;8.572;2023-05-31T00:38:55;13.10;63.00
9542;DHT22;4809;48.224;8.572;2023-05-31T00:41:21;13.00;62.70
9542;DHT22;4809;48.224;8.572;2023-05-31T00:43:48;13.00;63.30
9542;DHT22;4809;48.224;8.572;2023-05-31T00:46:28;13.00;63.40
9542;DHT22;4809;48.224;8.572;2023-05-31T00:48:55;13.00;63.30
9542;DHT22;4809;48.224;8.572;2023-05-31T00:51:22;12.90;63.90
9542;DHT22;4809;48.224;8.572;2023-05-31T00:53:50;12.90;64.40
9542;DHT22;4809;48.224;8.572;2023-05-31T00:56:16;12.90;64.40
9542;DHT22;4809;48.224;8.572;2023-05-31T00:58:44;12.80;64.10
9542;DHT22;4809;48.224;8.572;2023-05-31T01:01:13;12.80;64.60
9542;DHT22;4809;48.224;8.572;2023-05-31T01:03:39;12.80;65.00
9542;DHT22;4809;48.224;8.572;2023-05-31T01:06:05;12.80;65.30
9542;DHT22;4809;48.224;8.572;2023-05-31T01:08:31;12.80;66.50
9542;DHT22;4809;48.224;8.572;2023-05-31T01:11:02;12.70;65.80
9542;DHT22;4809;48.224;8.572;2023-05-31T01:13:40;12.70;66.10
9542;DHT22;4809;48.224;8.572;2023-05-31T01:16:18;12.70;66.20
9542;DHT22;4809;48.224;8.572;2023-05-31T01:18:49;12.70;66.20
9542;DHT22;4809;48.224;8.572;2023-05-31T01:21:26;12.70;66.20
9542;DHT22;4809;48.224;8.572;2023-05-31T01:24:12;12.70;65.80
9542;DHT22;4809;48.224;8.572;2023-05-31T01:26:43;12.70;66.10
9542;DHT22;4809;48.224;8.572;2023-05-31T01:29:20;12.70;66.70
9542;DHT22;4809;48.224;8.572;2023-05-31T01:31:47;12.60;67.00
9542;DHT22;4809;48.224;8.572;2023-05-31T01:34:13;12.60;66.80
9542;DHT22;4809;48.224;8.572;2023-05-31T01:36:39;12.60;67.00
9542;DHT22;4809;48.224;8.572;2023-05-31T01:39:06;12.50;67.00
9542;DHT22;4809;48.224;8.572;2023-05-31T01:41:36;12.50;67.10
9542;DHT22;4809;48.224;8.572;2023-05-31T01:44:04;12.50;67.20
9542;DHT22;4809;48.224;8.572;2023-05-31T01:46:31;12.40;67.30
9542;DHT22;4809;48.224;8.572;2023-05-31T01:48:57;12.40;67.50
9542;DHT22;4809;48.224;8.572;2023-05-31T01:51:23;12.30;67.60
9542;DHT22;4809;48.224;8.572;2023-05-31T01:53:50;12.20;68.30
9542;DHT22;4809;48.224;8.572;2023-05-31T01:56:16;12.30;68.40
9542;DHT22;4809;48.224;8.572;2023-05-31T01:58:44;12.20;67.80
9542;DHT22;4809;48.224;8.572;2023-05-31T02:01:13;12.20;68.10
9542;DHT22;4809;48.224;8.572;2023-05-31T02:03:39;12.20;68.30
9542;DHT22;4809;48.224;8.572;2023-05-31T02:06:05;12.10;68.30
9542;DHT22;4809;48.224;8.572;2023-05-31T02:08:31;12.10;68.50
9542;DHT22;4809;48.224;8.572;2023-05-31T02:10:57;12.10;68.40
9542;DHT22;4809;48.224;8.572;2023-05-31T02:13:32;12.10;68.90
9542;DHT22;4809;48.224;8.572;2023-05-31T02:15:58;12.10;69.10
9542;DHT22;4809;48.224;8.572;2023-05-31T02:18:24;12.10;69.40
9542;DHT22;4809;48.224;8.572;2023-05-31T02:20:52;12.10;69.10
9542;DHT22;4809;48.224;8.572;2023-05-31T02:23:19;12.00;69.70
9542;DHT22;4809;48.224;8.572;2023-05-31T02:25:46;11.90;70.00
9542;DHT22;4809;48.224;8.572;2023-05-31T02:28:11;11.90;70.30
9542;DHT22;4809;48.224;8.572;2023-05-31T02:30:37;11.90;70.20
9542;DHT22;4809;48.224;8.572;2023-05-31T02:33:04;11.80;70.00
9542;DHT22;4809;48.224;8.572;2023-05-31T02:35:30;11.80;70.10
9542;DHT22;4809;48.224;8.572;2023-05-31T02:37:56;11.80;70.50
9542;DHT22;4809;48.224;8.572;2023-05-31T02:40:21;11.80;70.80
9542;DHT22;4809;48.224;8.572;2023-05-31T02:42:47;11.80;70.60
9542;DHT22;4809;48.224;8.572;2023-05-31T02:45:13;11.80;70.70
9542;DHT22;4809;48.224;8.572;2023-05-31T02:47:39;11.80;70.80
9542;DHT22;4809;48.224;8.572;2023-05-31T02:50:09;11.80;70.40
9542;DHT22;4809;48.224;8.572;2023-05-31T02:52:36;11.80;70.30
9542;DHT22;4809;48.224;8.572;2023-05-31T02:55:03;11.80;71.70
9542;DHT22;4809;48.224;8.572;2023-05-31T02:57:28;11.70;70.60
9542;DHT22;4809;48.224;8.572;2023-05-31T02:59:56;11.80;71.40
9542;DHT22;4809;48.224;8.572;2023-05-31T03:02:22;11.70;70.40
9542;DHT22;4809;48.224;8.572;2023-05-31T03:04:48;11.70;70.90
9542;DHT22;4809;48.224;8.572;2023-05-31T03:07:14;11.70;71.00
9542;DHT22;4809;48.224;8.572;2023-05-31T03:09:39;11.80;72.50
9542;DHT22;4809;48.224;8.572;2023-05-31T03:12:05;11.80;73.10
9542;DHT22;4809;48.224;8.572;2023-05-31T03:14:32;11.70;71.20
9542;DHT22;4809;48.224;8.572;2023-05-31T03:16:57;11.60;71.50
9542;DHT22;4809;48.224;8.572;2023-05-31T03:19:23;11.50;72.50
9542;DHT22;4809;48.224;8.572;2023-05-31T03:21:49;11.40;72.40
9542;DHT22;4809;48.224;8.572;2023-05-31T03:24:15;11.40;74.00
9542;DHT22;4809;48.224;8.572;2023-05-31T03:26:40;11.20;73.60
9542;DHT22;4809;48.224;8.572;2023-05-31T03:29:06;11.10;74.30
9542;DHT22;4809;48.224;8.572;2023-05-31T03:31:32;11.10;74.30
9542;DHT22;4809;48.224;8.572;2023-05-31T03:33:58;11.00;74.90
9542;DHT22;4809;48.224;8.572;2023-05-31T03:36:24;11.00;75.20
9542;DHT22;4809;48.224;8.572;2023-05-31T03:38:50;10.90;74.70
9542;DHT22;4809;48.224;8.572;2023-05-31T03:41:16;11.00;75.20
9542;DHT22;4809;48.224;8.572;2023-05-31T03:43:42;10.90;74.60
9542;DHT22;4809;48.224;8.572;2023-05-31T03:46:07;10.90;74.90
9542;DHT22;4809;48.224;8.572;2023-05-31T03:48:33;10.90;74.60
9542;DHT22;4809;48.224;8.572;2023-05-31T03:50:59;11.10;75.80
9542;DHT22;4809;48.224;8.572;2023-05-31T03:53:24;11.10;75.80
9542;DHT22;4809;48.224;8.572;2023-05-31T03:55:51;11.00;74.50
9542;DHT22;4809;48.224;8.572;2023-05-31T03:58:16;11.10;73.90
9542;DHT22;4809;48.224;8.572;2023-05-31T04:00:43;11.00;73.40
9542;DHT22;4809;48.224;8.572;2023-05-31T04:03:09;11.10;73.90
9542;DHT22;4809;48.224;8.572;2023-05-31T04:05:40;11.10;73.80
9542;DHT22;4809;48.224;8.572;2023-05-31T04:08:06;11.00;73.80
9542;DHT22;4809;48.224;8.572;2023-05-31T04:10:32;11.10;74.00
9542;DHT22;4809;48.224;8.572;2023-05-31T04:12:58;11.20;73.50
9542;DHT22;4809;48.224;8.572;2023-05-31T04:15:24;11.10;73.90
9542;DHT22;4809;48.224;8.572;2023-05-31T04:17:49;11.20;73.90
9542;DHT22;4809;48.224;8.572;2023-05-31T04:20:15;11.30;74.00
9542;DHT22;4809;48.224;8.572;2023-05-31T04:22:42;11.30;73.50
9542;DHT22;4809;48.224;8.572;2023-05-31T04:25:08;11.40;73.30
9542;DHT22;4809;48.224;8.572;2023-05-31T04:27:34;11.50;73.40
9542;DHT22;4809;48.224;8.572;2023-05-31T04:30:04;11.60;72.90
9542;DHT22;4809;48.224;8.572;2023-05-31T04:32:31;11.60;71.90
9542;DHT22;4809;48.224;8.572;2023-05-31T04:35:02;11.70;72.20
9542;DHT22;4809;48.224;8.572;2023-05-31T04:37:32;11.80;72.40
9542;DHT22;4809;48.224;8.572;2023-05-31T04:39:59;11.90;72.10
9542;DHT22;4809;48.224;8.572;2023-05-31T04:42:27;11.90;72.20
9542;DHT22;4809;48.224;8.572;2023-05-31T04:44:54;12.00;71.80
9542;DHT22;4809;48.224;8.572;2023-05-31T04:47:29;12.10;72.40
9542;DHT22;4809;48.224;8.572;2023-05-31T04:49:55;12.10;71.90
9542;DHT22;4809;48.224;8.572;2023-05-31T04:52:31;12.20;71.60
9542;DHT22;4809;48.224;8.572;2023-05-31T04:55:01;12.30;72.70
9542;DHT22;4809;48.224;8.572;2023-05-31T04:57:27;12.40;71.40
9542;DHT22;4809;48.224;8.572;2023-05-31T04:59:54;12.40;71.30
9542;DHT22;4809;48.224;8.572;2023-05-31T05:02:22;12.60;70.30
9542;DHT22;4809;48.224;8.572;2023-05-31T05:04:48;12.70;70.10
9542;DHT22;4809;48.224;8.572;2023-05-31T05:07:14;12.80;69.90
9542;DHT22;4809;48.224;8.572;2023-05-31T05:09:40;12.90;69.20
9542;DHT22;4809;48.224;8.572;2023-05-31T05:12:06;13.00;69.80
9542;DHT22;4809;48.224;8.572;2023-05-31T05:14:33;13.10;69.50
9542;DHT22;4809;48.224;8.572;2023-05-31T05:16:59;13.30;69.30
9542;DHT22;4809;48.224;8.572;2023-05-31T05:19:25;13.30;69.00
9542;DHT22;4809;48.224;8.572;2023-05-31T05:21:51;13.50;69.50
9542;DHT22;4809;48.224;8.572;2023-05-31T05:24:17;13.60;68.10
9542;DHT22;4809;48.224;8.572;2023-05-31T05:26:44;13.70;67.10
9542;DHT22;4809;48.224;8.572;2023-05-31T05:29:09;13.80;66.80
9542;DHT22;4809;48.224;8.572;2023-05-31T05:31:35;13.90;66.90
9542;DHT22;4809;48.224;8.572;2023-05-31T05:34:01;13.90;67.10
9542;DHT22;4809;48.224;8.572;2023-05-31T05:36:26;14.10;67.10
9542;DHT22;4809;48.224;8.572;2023-05-31T05:38:52;14.20;67.10
9542;DHT22;4809;48.224;8.572;2023-05-31T05:41:18;14.40;68.40
9542;DHT22;4809;48.224;8.572;2023-05-31T05:43:44;14.50;67.00
9542;DHT22;4809;48.224;8.572;2023-05-31T05:46:09;14.60;67.00
9542;DHT22;4809;48.224;8.572;2023-05-31T05:48:35;14.60;65.40
9542;DHT22;4809;48.224;8.572;2023-05-31T05:51:01;14.70;64.90
9542;DHT22;4809;48.224;8.572;2023-05-31T05:53:27;14.80;65.20
9542;DHT22;4809;48.224;8.572;2023-05-31T05:55:53;14.90;64.90
9542;DHT22;4809;48.224;8.572;2023-05-31T05:58:20;15.00;63.40
9542;DHT22;4809;48.224;8.572;2023-05-31T06:00:49;15.10;63.20
9542;DHT22;4809;48.224;8.572;2023-05-31T06:03:15;15.30;63.60
9542;DHT22;4809;48.224;8.572;2023-05-31T06:05:44;15.40;63.00
9542;DHT22;4809;48.224;8.572;2023-05-31T06:08:10;15.40;63.60
9542;DHT22;4809;48.224;8.572;2023-05-31T06:10:37;15.40;62.70
9542;DHT22;4809;48.224;8.572;2023-05-31T06:13:03;15.40;61.80
9542;DHT22;4809;48.224;8.572;2023-05-31T06:15:30;15.50;62.90
9542;DHT22;4809;48.224;8.572;2023-05-31T06:17:55;15.70;62.50
9542;DHT22;4809;48.224;8.572;2023-05-31T06:20:21;15.90;62.70
9542;DHT22;4809;48.224;8.572;2023-05-31T06:22:47;16.00;63.00
9542;DHT22;4809;48.224;8.572;2023-05-31T06:25:15;16.10;61.70
9542;DHT22;4809;48.224;8.572;2023-05-31T06:27:41;16.20;61.80
9542;DHT22;4809;48.224;8.572;2023-05-31T06:30:08;16.30;60.50
9542;DHT22;4809;48.224;8.572;2023-05-31T06:32:35;16.40;61.30
9542;DHT22;4809;48.224;8.572;2023-05-31T06:35:01;16.60;60.90
9542;DHT22;4809;48.224;8.572;2023-05-31T06:37:27;16.70;61.70
9542;DHT22;4809;48.224;8.572;2023-05-31T06:39:52;16.70;60.40
9542;DHT22;4809;48.224;8.572;2023-05-31T06:42:19;16.80;60.60
9542;DHT22;4809;48.224;8.572;2023-05-31T06:44:46;17.00;62.10
9542;DHT22;4809;48.224;8.572;2023-05-31T06:47:12;17.10;61.30
9542;DHT22;4809;48.224;8.572;2023-05-31T06:49:38;17.10;59.80
9542;DHT22;4809;48.224;8.572;2023-05-31T06:52:03;17.10;60.70
9542;DHT22;4809;48.224;8.572;2023-05-31T06:54:30;17.40;60.50
9542;DHT22;4809;48.224;8.572;2023-05-31T06:56:56;17.40;59.70
9542;DHT22;4809;48.224;8.572;2023-05-31T06:59:22;17.50;60.10
9542;DHT22;4809;48.224;8.572;2023-05-31T07:01:47;17.80;60.10
9542;DHT22;4809;48.224;8.572;2023-05-31T07:04:13;17.90;60.00
9542;DHT22;4809;48.224;8.572;2023-05-31T07:06:39;18.00;58.70
9542;DHT22;4809;48.224;8.572;2023-05-31T07:09:04;18.20;59.70
9542;DHT22;4809;48.224;8.572;2023-05-31T07:11:31;18.30;59.30
9542;DHT22;4809;48.224;8.572;2023-05-31T07:13:57;18.40;59.00
9542;DHT22;4809;48.224;8.572;2023-05-31T07:16:27;18.50;58.80
9542;DHT22;4809;48.224;8.572;2023-05-31T07:18:53;18.80;60.10
9542;DHT22;4809;48.224;8.572;2023-05-31T07:21:19;19.00;58.70
9542;DHT22;4809;48.224;8.572;2023-05-31T07:23:45;19.10;58.60
9542;DHT22;4809;48.224;8.572;2023-05-31T07:26:10;19.10;58.50
9542;DHT22;4809;48.224;8.572;2023-05-31T07:28:36;19.30;58.00
9542;DHT22;4809;48.224;8.572;2023-05-31T07:31:02;19.40;57.70
9542;DHT22;4809;48.224;8.572;2023-05-31T07:33:28;19.40;57.90
9542;DHT22;4809;48.224;8.572;2023-05-31T07:35:54;19.60;59.00
9542;DHT22;4809;48.224;8.572;2023-05-31T07:38:19;19.60;57.40
9542;DHT22;4809;48.224;8.572;2023-05-31T07:40:45;19.70;58.90
9542;DHT22;4809;48.224;8.572;2023-05-31T07:43:11;19.70;57.90
9542;DHT22;4809;48.224;8.572;2023-05-31T07:45:39;19.80;58.00
9542;DHT22;4809;48.224;8.572;2023-05-31T07:48:04;20.10;58.60
9542;DHT22;4809;48.224;8.572;2023-05-31T07:50:30;20.30;57.40
9542;DHT22;4809;48.224;8.572;2023-05-31T07:52:56;20.50;57.50
9542;DHT22;4809;48.224;8.572;2023-05-31T07:55:21;20.70;58.30
9542;DHT22;4809;48.224;8.572;2023-05-31T07:57:47;20.90;57.90
9542;DHT22;4809;48.224;8.572;2023-05-31T08:00:13;21.00;56.20
9542;DHT22;4809;48.224;8.572;2023-05-31T08:02:42;21.20;56.80
9542;DHT22;4809;48.224;8.572;2023-05-31T08:05:09;21.30;57.10
9542;DHT22;4809;48.224;8.572;2023-05-31T08:07:35;21.60;57.00
9542;DHT22;4809;48.224;8.572;2023-05-31T08:10:00;21.70;56.80
9542;DHT22;4809;48.224;8.572;2023-05-31T08:12:26;21.80;56.00
9542;DHT22;4809;48.224;8.572;2023-05-31T08:14:52;21.90;55.30
9542;DHT22;4809;48.224;8.572;2023-05-31T08:17:18;21.90;54.90
9542;DHT22;4809;48.224;8.572;2023-05-31T08:19:44;22.00;54.60
9542;DHT22;4809;48.224;8.572;2023-05-31T08:22:09;22.00;57.30
9542;DHT22;4809;48.224;8.572;2023-05-31T08:24:35;22.00;53.80
9542;DHT22;4809;48.224;8.572;2023-05-31T08:27:01;21.90;54.20
9542;DHT22;4809;48.224;8.572;2023-05-31T08:29:27;22.00;55.70
9542;DHT22;4809;48.224;8.572;2023-05-31T08:31:53;22.20;56.30
9542;DHT22;4809;48.224;8.572;2023-05-31T08:34:19;22.30;54.80
9542;DHT22;4809;48.224;8.572;2023-05-31T08:36:45;22.50;55.10
9542;DHT22;4809;48.224;8.572;2023-05-31T08:39:13;22.60;53.80
9542;DHT22;4809;48.224;8.572;2023-05-31T08:44:15;22.90;54.80
9542;DHT22;4809;48.224;8.572;2023-05-31T08:46:43;22.90;52.60
9542;DHT22;4809;48.224;8.572;2023-05-31T08:49:11;23.00;54.30
9542;DHT22;4809;48.224;8.572;2023-05-31T08:51:38;23.10;55.00
9542;DHT22;4809;48.224;8.572;2023-05-31T08:54:06;23.10;53.10
9542;DHT22;4809;48.224;8.572;2023-05-31T08:56:32;23.20;55.00
9542;DHT22;4809;48.224;8.572;2023-05-31T08:58:58;23.30;54.70
9542;DHT22;4809;48.224;8.572;2023-05-31T09:01:25;23.30;53.20
9542;DHT22;4809;48.224;8.572;2023-05-31T09:03:53;23.40;52.00
9542;DHT22;4809;48.224;8.572;2023-05-31T09:06:19;23.40;53.10
9542;DHT22;4809;48.224;8.572;2023-05-31T09:08:45;23.50;54.10
9542;DHT22;4809;48.224;8.572;2023-05-31T09:11:13;23.50;53.70
9542;DHT22;4809;48.224;8.572;2023-05-31T09:13:38;23.70;55.00
9542;DHT22;4809;48.224;8.572;2023-05-31T09:16:04;23.90;53.40
9542;DHT22;4809;48.224;8.572;2023-05-31T09:18:37;23.80;53.00
9542;DHT22;4809;48.224;8.572;2023-05-31T09:21:08;24.00;54.20
9542;DHT22;4809;48.224;8.572;2023-05-31T09:23:35;24.20;54.30
9542;DHT22;4809;48.224;8.572;2023-05-31T09:26:01;24.40;54.00
9542;DHT22;4809;48.224;8.572;2023-05-31T09:28:30;24.30;51.40
9542;DHT22;4809;48.224;8.572;2023-05-31T09:31:04;24.40;54.20
9542;DHT22;4809;48.224;8.572;2023-05-31T09:33:56;24.60;50.40
9542;DHT22;4809;48.224;8.572;2023-05-31T09:36:27;24.70;49.50
9542;DHT22;4809;48.224;8.572;2023-05-31T09:39:00;24.60;51.20
9542;DHT22;4809;48.224;8.572;2023-05-31T09:41:27;24.70;50.60
9542;DHT22;4809;48.224;8.572;2023-05-31T09:43:53;24.80;49.20
9542;DHT22;4809;48.224;8.572;2023-05-31T09:46:20;24.80;47.60
9542;DHT22;4809;48.224;8.572;2023-05-31T09:49:05;24.80;49.20
9542;DHT22;4809;48.224;8.572;2023-05-31T09:51:38;25.00;50.50
9542;DHT22;4809;48.224;8.572;2023-05-31T09:54:14;25.20;48.20
9542;DHT22;4809;48.224;8.572;2023-05-31T09:56:42;25.30;46.20
9542;DHT22;4809;48.224;8.572;2023-05-31T09:59:09;25.50;47.50
9542;DHT22;4809;48.224;8.572;2023-05-31T10:01:36;25.50;46.80
9542;DHT22;4809;48.224;8.572;2023-05-31T10:04:02;25.50;45.40
9542;DHT22;4809;48.224;8.572;2023-05-31T10:06:30;25.60;49.40
9542;DHT22;4809;48.224;8.572;2023-05-31T10:09:01;25.70;45.10
9542;DHT22;4809;48.224;8.572;2023-05-31T10:11:32;25.70;45.50
9542;DHT22;4809;48.224;8.572;2023-05-31T10:14:02;25.90;47.00
9542;DHT22;4809;48.224;8.572;2023-05-31T10:16:36;26.00;45.70
9542;DHT22;4809;48.224;8.572;2023-05-31T10:19:06;26.10;45.10
9542;DHT22;4809;48.224;8.572;2023-05-31T10:21:34;26.10;46.10
9542;DHT22;4809;48.224;8.572;2023-05-31T10:24:09;26.10;44.70
9542;DHT22;4809;48.224;8.572;2023-05-31T10:27:00;26.20;43.20
9542;DHT22;4809;48.224;8.572;2023-05-31T10:29:35;26.40;45.70
9542;DHT22;4809;48.224;8.572;2023-05-31T10:32:06;26.60;44.90
9542;DHT22;4809;48.224;8.572;2023-05-31T10:34:34;26.60;43.30
9542;DHT22;4809;48.224;8.572;2023-05-31T10:37:00;26.60;46.20
9542;DHT22;4809;48.224;8.572;2023-05-31T10:42:25;27.00;44.30
9542;DHT22;4809;48.224;8.572;2023-05-31T10:45:03;26.90;42.60
9542;DHT22;4809;48.224;8.572;2023-05-31T10:50:19;26.50;41.00
9542;DHT22;4809;48.224;8.572;2023-05-31T10:52:51;26.40;43.60
9542;DHT22;4809;48.224;8.572;2023-05-31T10:55:24;26.50;44.50
9542;DHT22;4809;48.224;8.572;2023-05-31T10:57:54;26.60;43.60
9542;DHT22;4809;48.224;8.572;2023-05-31T11:00:21;26.60;43.10
9542;DHT22;4809;48.224;8.572;2023-05-31T11:02:48;26.80;43.90
9542;DHT22;4809;48.224;8.572;2023-05-31T11:05:24;27.00;44.90
9542;DHT22;4809;48.224;8.572;2023-05-31T11:07:53;27.20;41.50
9542;DHT22;4809;48.224;8.572;2023-05-31T11:10:30;27.10;41.00
9542;DHT22;4809;48.224;8.572;2023-05-31T11:13:04;27.20;42.80
9542;DHT22;4809;48.224;8.572;2023-05-31T11:15:44;27.20;41.80
9542;DHT22;4809;48.224;8.572;2023-05-31T11:18:22;27.30;42.50
9542;DHT22;4809;48.224;8.572;2023-05-31T11:20:49;27.40;42.60
9542;DHT22;4809;48.224;8.572;2023-05-31T11:23:24;27.50;41.00
9542;DHT22;4809;48.224;8.572;2023-05-31T11:26:10;27.50;41.60
9542;DHT22;4809;48.224;8.572;2023-05-31T11:28:56;27.30;39.60
9542;DHT22;4809;48.224;8.572;2023-05-31T11:31:55;27.30;40.60
9542;DHT22;4809;48.224;8.572;2023-05-31T11:34:26;27.50;38.50
9542;DHT22;4809;48.224;8.572;2023-05-31T11:37:00;27.60;38.50
9542;DHT22;4809;48.224;8.572;2023-05-31T11:39:27;27.70;41.30
9542;DHT22;4809;48.224;8.572;2023-05-31T11:41:54;27.80;39.40
9542;DHT22;4809;48.224;8.572;2023-05-31T11:44:25;27.90;40.80
9542;DHT22;4809;48.224;8.572;2023-05-31T11:47:04;28.10;40.60
9542;DHT22;4809;48.224;8.572;2023-05-31T11:49:30;28.20;37.60
9542;DHT22;4809;48.224;8.572;2023-05-31T11:51:57;28.10;39.40
9542;DHT22;4809;48.224;8.572;2023-05-31T11:54:31;28.10;38.90
9542;DHT22;4809;48.224;8.572;2023-05-31T11:57:05;28.30;40.40
9542;DHT22;4809;48.224;8.572;2023-05-31T11:59:35;28.30;38.50
9542;DHT22;4809;48.224;8.572;2023-05-31T12:02:05;28.20;37.60
9542;DHT22;4809;48.224;8.572;2023-05-31T12:04:36;28.10;37.60
9542;DHT22;4809;48.224;8.572;2023-05-31T12:07:10;28.20;39.30
9542;DHT22;4809;48.224;8.572;2023-05-31T12:09:35;28.30;38.40
9542;DHT22;4809;48.224;8.572;2023-05-31T12:12:02;28.40;38.60
9542;DHT22;4809;48.224;8.572;2023-05-31T12:14:29;28.50;38.50
9542;DHT22;4809;48.224;8.572;2023-05-31T12:16:55;28.60;38.00
9542;DHT22;4809;48.224;8.572;2023-05-31T12:19:21;28.50;38.00
9542;DHT22;4809;48.224;8.572;2023-05-31T12:21:47;28.60;38.10
9542;DHT22;4809;48.224;8.572;2023-05-31T12:24:16;28.70;36.90
9542;DHT22;4809;48.224;8.572;2023-05-31T12:26:47;28.70;39.20
9542;DHT22;4809;48.224;8.572;2023-05-31T12:29:17;28.80;37.90
9542;DHT22;4809;48.224;8.572;2023-05-31T12:31:44;29.00;37.10
9542;DHT22;4809;48.224;8.572;2023-05-31T12:34:17;28.90;37.60
9542;DHT22;4809;48.224;8.572;2023-05-31T12:36:44;29.00;35.40
9542;DHT22;4809;48.224;8.572;2023-05-31T12:39:12;28.90;36.00
9542;DHT22;4809;48.224;8.572;2023-05-31T12:41:42;29.00;37.90
9542;DHT22;4809;48.224;8.572;2023-05-31T12:44:09;29.20;37.20
9542;DHT22;4809;48.224;8.572;2023-05-31T12:46:41;28.90;36.60
9542;DHT22;4809;48.224;8.572;2023-05-31T12:49:27;28.80;36.10
9542;DHT22;4809;48.224;8.572;2023-05-31T12:52:14;28.80;36.70
9542;DHT22;4809;48.224;8.572;2023-05-31T12:54:40;28.80;37.10
9542;DHT22;4809;48.224;8.572;2023-05-31T12:57:08;29.00;36.40
9542;DHT22;4809;48.224;8.572;2023-05-31T12:59:34;28.80;35.90
9542;DHT22;4809;48.224;8.572;2023-05-31T13:02:01;28.80;36.40
9542;DHT22;4809;48.224;8.572;2023-05-31T13:04:28;28.80;34.30
9542;DHT22;4809;48.224;8.572;2023-05-31T13:06:54;28.90;37.80
9542;DHT22;4809;48.224;8.572;2023-05-31T13:09:22;29.10;35.80
9542;DHT22;4809;48.224;8.572;2023-05-31T13:11:48;29.30;35.10
9542;DHT22;4809;48.224;8.572;2023-05-31T13:14:18;29.10;34.90
9542;DHT22;4809;48.224;8.572;2023-05-31T13:16:44;29.20;34.50
9542;DHT22;4809;48.224;8.572;2023-05-31T13:19:10;29.10;37.40
9542;DHT22;4809;48.224;8.572;2023-05-31T13:21:36;29.30;35.90
9542;DHT22;4809;48.224;8.572;2023-05-31T13:24:02;29.30;34.60
9542;DHT22;4809;48.224;8.572;2023-05-31T13:26:28;29.30;34.90
9542;DHT22;4809;48.224;8.572;2023-05-31T13:28:55;29.20;34.80
9542;DHT22;4809;48.224;8.572;2023-05-31T13:31:26;29.10;34.20
9542;DHT22;4809;48.224;8.572;2023-05-31T13:33:52;29.20;38.00
9542;DHT22;4809;48.224;8.572;2023-05-31T13:36:19;29.30;33.70
9542;DHT22;4809;48.224;8.572;2023-05-31T13:38:46;29.30;33.60
9542;DHT22;4809;48.224;8.572;2023-05-31T13:41:12;29.40;34.20
9542;DHT22;4809;48.224;8.572;2023-05-31T13:43:37;29.40;32.30
9542;DHT22;4809;48.224;8.572;2023-05-31T13:46:04;29.40;34.00
9542;DHT22;4809;48.224;8.572;2023-05-31T13:48:30;29.40;32.40
9542;DHT22;4809;48.224;8.572;2023-05-31T13:50:57;29.20;32.50
9542;DHT22;4809;48.224;8.572;2023-05-31T13:53:23;29.20;34.80
9542;DHT22;4809;48.224;8.572;2023-05-31T13:55:49;29.00;33.70
9542;DHT22;4809;48.224;8.572;2023-05-31T13:58:15;29.20;34.00
9542;DHT22;4809;48.224;8.572;2023-05-31T14:00:42;29.40;34.20
9542;DHT22;4809;48.224;8.572;2023-05-31T14:03:08;29.50;32.90
9542;DHT22;4809;48.224;8.572;2023-05-31T14:05:33;29.60;33.40
9542;DHT22;4809;48.224;8.572;2023-05-31T14:07:59;29.60;34.50
9542;DHT22;4809;48.224;8.572;2023-05-31T14:10:25;29.70;32.20
9542;DHT22;4809;48.224;8.572;2023-05-31T14:12:51;29.70;34.30
9542;DHT22;4809;48.224;8.572;2023-05-31T14:15:16;29.80;32.20
9542;DHT22;4809;48.224;8.572;2023-05-31T14:17:42;29.80;33.10
9542;DHT22;4809;48.224;8.572;2023-05-31T14:20:10;29.90;34.10
9542;DHT22;4809;48.224;8.572;2023-05-31T14:22:36;29.80;32.10
9542;DHT22;4809;48.224;8.572;2023-05-31T14:25:01;29.70;33.20
9542;DHT22;4809;48.224;8.572;2023-05-31T14:27:27;29.80;32.70
9542;DHT22;4809;48.224;8.572;2023-05-31T14:29:52;29.70;32.60
9542;DHT22;4809;48.224;8.572;2023-05-31T14:32:18;29.60;31.50
9542;DHT22;4809;48.224;8.572;2023-05-31T14:34:44;29.60;31.50
9542;DHT22;4809;48.224;8.572;2023-05-31T14:37:11;29.40;31.40
9542;DHT22;4809;48.224;8.572;2023-05-31T14:39:38;29.40;31.90
9542;DHT22;4809;48.224;8.572;2023-05-31T14:42:04;29.40;31.00
9542;DHT22;4809;48.224;8.572;2023-05-31T14:44:31;29.30;34.60
9542;DHT22;4809;48.224;8.572;2023-05-31T14:46:56;29.20;31.10
9542;DHT22;4809;48.224;8.572;2023-05-31T14:49:22;29.10;32.10
9542;DHT22;4809;48.224;8.572;2023-05-31T14:51:49;29.10;31.70
9542;DHT22;4809;48.224;8.572;2023-05-31T14:54:17;29.00;33.70
9542;DHT22;4809;48.224;8.572;2023-05-31T14:56:42;29.00;33.40
9542;DHT22;4809;48.224;8.572;2023-05-31T14:59:08;29.10;34.20
9542;DHT22;4809;48.224;8.572;2023-05-31T15:01:34;29.40;31.00
9542;DHT22;4809;48.224;8.572;2023-05-31T15:03:59;29.40;31.90
9542;DHT22;4809;48.224;8.572;2023-05-31T15:06:28;29.40;32.30
9542;DHT22;4809;48.224;8.572;2023-05-31T15:08:54;29.40;32.30
9542;DHT22;4809;48.224;8.572;2023-05-31T15:11:19;29.40;33.10
9542;DHT22;4809;48.224;8.572;2023-05-31T15:13:45;29.30;31.60
9542;DHT22;4809;48.224;8.572;2023-05-31T15:16:11;29.40;32.30
9542;DHT22;4809;48.224;8.572;2023-05-31T15:18:36;29.40;30.10
9542;DHT22;4809;48.224;8.572;2023-05-31T15:21:02;29.50;31.50
9542;DHT22;4809;48.224;8.572;2023-05-31T15:23:28;29.60;31.40
9542;DHT22;4809;48.224;8.572;2023-05-31T15:25:54;29.60;30.30
9542;DHT22;4809;48.224;8.572;2023-05-31T15:28:19;29.30;30.20
9542;DHT22;4809;48.224;8.572;2023-05-31T15:30:45;29.10;30.80
9542;DHT22;4809;48.224;8.572;2023-05-31T15:33:10;29.00;31.20
9542;DHT22;4809;48.224;8.572;2023-05-31T15:35:36;29.00;32.60
9542;DHT22;4809;48.224;8.572;2023-05-31T15:38:02;29.00;31.90
9542;DHT22;4809;48.224;8.572;2023-05-31T15:40:28;29.10;30.20
9542;DHT22;4809;48.224;8.572;2023-05-31T15:42:53;29.10;31.00
9542;DHT22;4809;48.224;8.572;2023-05-31T15:45:19;29.20;31.10
9542;DHT22;4809;48.224;8.572;2023-05-31T15:47:45;29.20;30.20
9542;DHT22;4809;48.224;8.572;2023-05-31T15:50:10;29.30;31.50
9542;DHT22;4809;48.224;8.572;2023-05-31T15:52:36;29.40;30.80
9542;DHT22;4809;48.224;8.572;2023-05-31T15:55:02;29.30;30.00
9542;DHT22;4809;48.224;8.572;2023-05-31T15:57:29;29.20;31.20
9542;DHT22;4809;48.224;8.572;2023-05-31T15:59:54;29.10;30.60
9542;DHT22;4809;48.224;8.572;2023-05-31T16:02:20;29.10;31.00
9542;DHT22;4809;48.224;8.572;2023-05-31T16:04:46;29.00;30.50
9542;DHT22;4809;48.224;8.572;2023-05-31T16:07:12;28.80;32.70
9542;DHT22;4809;48.224;8.572;2023-05-31T16:09:38;28.70;30.80
9542;DHT22;4809;48.224;8.572;2023-05-31T16:12:04;28.70;32.30